sensor_id;sensor_type;location;lat;lon;timestamp;temperature;humidity
19809;DHT22;48538;32.784;-96.802;2024-02-28T00:00:36;23.80;99.90
19809;DHT22;48538;32.784;-96.802;2024-02-28T00:03:02;23.70;99.90
19809;DHT22;48538;32.784;-96.802;2024-02-28T00:05:29;23.60;99.90
19809;DHT22;48538;32.784;-96.802;2024-02-28T00:07:55;23.50;99.90
19809;DHT22;48538;32.784;-96.802;2024-02-28T00:10:21;23.60;99.90
19809;DHT22;48538;32.784;-96.802;2024-02-28T00:12:47;23.50;99.90
19809;DHT22;48538;32.784;-96.802;2024-02-28T00:15:14;23.50;99.90
19809;DHT22;48538;32.784;-96.802;2024-02-28T00:17:40;23.50;99.90
19809;DHT22;48538;32.784;-96.802;2024-02-28T00:20:08;23.40;99.90
19809;DHT22;48538;32.784;-96.802;2024-02-28T00:22:36;23.40;99.90
19809;DHT22;48538;32.784;-96.802;2024-02-28T00:25:03;23.40;99.90
19809;DHT22;48538;32.784;-96.802;2024-02-28T00:27:31;23.30;99.90
19809;DHT22;48538;32.784;-96.802;2024-02-28T00:29:57;23.30;99.90
19809;DHT22;48538;32.784;-96.802;2024-02-28T00:32:23;23.20;99.90
19809;DHT22;48538;32.784;-96.802;2024-02-28T00:34:49;23.20;99.90
19809;DHT22;48538;32.784;-96.802;2024-02-28T00:37:16;23.20;99.90
19809;DHT22;48538;32.784;-96.802;2024-02-28T00:39:44;23.10;99.90
19809;DHT22;48538;32.784;-96.802;2024-02-28T00:42:11;23.10;99.90
19809;DHT22;48538;32.784;-96.802;2024-02-28T00:44:37;23.10;99.90
19809;DHT22;48538;32.784;-96.802;2024-02-28T00:47:03;23.10;99.90
19809;DHT22;48538;32.784;-96.802;2024-02-28T00:49:30;23.00;99.90
19809;DHT22;48538;32.784;-96.802;2024-02-28T00:51:56;23.00;99.90
19809;DHT22;48538;32.784;-96.802;2024-02-28T00:54:22;23.00;99.90
19809;DHT22;48538;32.784;-96.802;2024-02-28T00:56:49;23.00;99.90
19809;DHT22;48538;32.784;-96.802;2024-02-28T00:59:16;23.00;99.90
19809;DHT22;48538;32.784;-96.802;2024-02-28T01:01:42;22.90;99.90
19809;DHT22;48538;32.784;-96.802;2024-02-28T01:04:08;23.00;99.90
19809;DHT22;48538;32.784;-96.802;2024-02-28T01:06:34;23.00;99.90
19809;DHT22;48538;32.784;-96.802;2024-02-28T01:09:01;22.90;99.90
19809;DHT22;48538;32.784;-96.802;2024-02-28T01:11:27;22.90;99.90
19809;DHT22;48538;32.784;-96.802;2024-02-28T01:13:53;22.90;99.90
19809;DHT22;48538;32.784;-96.802;2024-02-28T01:16:19;22.90;99.90
19809;DHT22;48538;32.784;-96.802;2024-02-28T01:18:46;22.90;99.90
19809;DHT22;48538;32.784;-96.802;2024-02-28T01:21:12;22.90;99.90
19809;DHT22;48538;32.784;-96.802;2024-02-28T01:23:39;22.80;99.90
19809;DHT22;48538;32.784;-96.802;2024-02-28T01:26:05;22.80;99.90
19809;DHT22;48538;32.784;-96.802;2024-02-28T01:28:32;22.80;99.90
19809;DHT22;48538;32.784;-96.802;2024-02-28T01:30:58;22.80;99.90
19809;DHT22;48538;32.784;-96.802;2024-02-28T01:33:26;22.80;99.90
19809;DHT22;48538;32.784;-96.802;2024-02-28T01:35:52;22.70;99.90
19809;DHT22;48538;32.784;-96.802;2024-02-28T01:38:18;22.80;99.90
19809;DHT22;48538;32.784;-96.802;2024-02-28T01:40:45;22.70;99.90
19809;DHT22;48538;32.784;-96.802;2024-02-28T01:43:12;22.70;99.90
19809;DHT22;48538;32.784;-96.802;2024-02-28T01:45:39;22.70;99.90
19809;DHT22;48538;32.784;-96.802;2024-02-28T01:48:09;22.70;99.90
19809;DHT22;48538;32.784;-96.802;2024-02-28T01:50:37;22.70;99.90
19809;DHT22;48538;32.784;-96.802;2024-02-28T01:53:08;22.70;99.90
19809;DHT22;48538;32.784;-96.802;2024-02-28T01:55:39;22.70;99.90
19809;DHT22;48538;32.784;-96.802;2024-02-28T01:58:06;22.70;99.90
19809;DHT22;48538;32.784;-96.802;2024-02-28T02:00:34;22.70;99.90
19809;DHT22;48538;32.784;-96.802;2024-02-28T02:03:01;22.70;99.90
19809;DHT22;48538;32.784;-96.802;2024-02-28T02:05:27;22.70;99.90
19809;DHT22;48538;32.784;-96.802;2024-02-28T02:07:54;22.70;99.90
19809;DHT22;48538;32.784;-96.802;2024-02-28T02:10:21;22.70;99.90
19809;DHT22;48538;32.784;-96.802;2024-02-28T02:12:47;22.70;99.90
19809;DHT22;48538;32.784;-96.802;2024-02-28T02:15:14;22.70;99.90
19809;DHT22;48538;32.784;-96.802;2024-02-28T02:17:40;22.70;99.90
19809;DHT22;48538;32.784;-96.802;2024-02-28T02:20:09;22.70;99.90
19809;DHT22;48538;32.784;-96.802;2024-02-28T02:22:42;22.70;99.90
19809;DHT22;48538;32.784;-96.802;2024-02-28T02:25:08;22.70;99.90
19809;DHT22;48538;32.784;-96.802;2024-02-28T02:27:35;22.70;99.90
19809;DHT22;48538;32.784;-96.802;2024-02-28T02:30:01;22.70;99.90
19809;DHT22;48538;32.784;-96.802;2024-02-28T02:32:27;22.70;99.90
19809;DHT22;48538;32.784;-96.802;2024-02-28T02:34:54;22.70;99.90
19809;DHT22;48538;32.784;-96.802;2024-02-28T02:37:20;22.70;99.90
19809;DHT22;48538;32.784;-96.802;2024-02-28T02:39:47;22.70;99.90
19809;DHT22;48538;32.784;-96.802;2024-02-28T02:42:13;22.70;99.90
19809;DHT22;48538;32.784;-96.802;2024-02-28T02:44:41;22.70;99.90
19809;DHT22;48538;32.784;-96.802;2024-02-28T02:47:07;22.70;99.90
19809;DHT22;48538;32.784;-96.802;2024-02-28T02:49:34;22.70;99.90
19809;DHT22;48538;32.784;-96.802;2024-02-28T02:52:00;22.60;99.90
19809;DHT22;48538;32.784;-96.802;2024-02-28T02:54:26;22.60;99.90
19809;DHT22;48538;32.784;-96.802;2024-02-28T02:56:52;22.70;99.90
19809;DHT22;48538;32.784;-96.802;2024-02-28T02:59:28;22.60;99.90
19809;DHT22;48538;32.784;-96.802;2024-02-28T03:01:54;22.60;99.90
19809;DHT22;48538;32.784;-96.802;2024-02-28T03:04:20;22.60;99.90
19809;DHT22;48538;32.784;-96.802;2024-02-28T03:06:46;22.60;99.90
19809;DHT22;48538;32.784;-96.802;2024-02-28T03:09:13;22.60;99.90
19809;DHT22;48538;32.784;-96.802;2024-02-28T03:11:39;22.50;99.90
19809;DHT22;48538;32.784;-96.802;2024-02-28T03:14:05;22.60;99.90
19809;DHT22;48538;32.784;-96.802;2024-02-28T03:16:32;22.50;99.90
19809;DHT22;48538;32.784;-96.802;2024-02-28T03:18:58;22.50;99.90
19809;DHT22;48538;32.784;-96.802;2024-02-28T03:21:24;22.60;99.90
19809;DHT22;48538;32.784;-96.802;2024-02-28T03:23:50;22.60;99.90
19809;DHT22;48538;32.784;-96.802;2024-02-28T03:26:17;22.60;99.90
19809;DHT22;48538;32.784;-96.802;2024-02-28T03:28:43;22.60;99.90
19809;DHT22;48538;32.784;-96.802;2024-02-28T03:31:09;22.60;99.90
19809;DHT22;48538;32.784;-96.802;2024-02-28T03:33:35;22.60;99.90
19809;DHT22;48538;32.784;-96.802;2024-02-28T03:36:02;22.60;99.90
19809;DHT22;48538;32.784;-96.802;2024-02-28T03:38:28;22.50;99.90
19809;DHT22;48538;32.784;-96.802;2024-02-28T03:40:54;22.50;99.90
19809;DHT22;48538;32.784;-96.802;2024-02-28T03:43:21;22.50;99.90
19809;DHT22;48538;32.784;-96.802;2024-02-28T03:45:47;22.50;99.90
19809;DHT22;48538;32.784;-96.802;2024-02-28T03:48:14;22.60;99.90
19809;DHT22;48538;32.784;-96.802;2024-02-28T03:50:41;22.60;99.90
19809;DHT22;48538;32.784;-96.802;2024-02-28T03:53:07;22.60;99.90
19809;DHT22;48538;32.784;-96.802;2024-02-28T03:55:33;22.60;99.90
19809;DHT22;48538;32.784;-96.802;2024-02-28T03:57:59;22.60;99.90
19809;DHT22;48538;32.784;-96.802;2024-02-28T04:00:26;22.60;99.90
19809;DHT22;48538;32.784;-96.802;2024-02-28T04:02:52;22.60;99.90
19809;DHT22;48538;32.784;-96.802;2024-02-28T04:05:19;22.60;99.90
19809;DHT22;48538;32.784;-96.802;2024-02-28T04:07:45;22.60;99.90
19809;DHT22;48538;32.784;-96.802;2024-02-28T04:10:11;22.70;99.90
19809;DHT22;48538;32.784;-96.802;2024-02-28T04:12:37;22.60;99.90
19809;DHT22;48538;32.784;-96.802;2024-02-28T04:15:04;22.70;99.90
19809;DHT22;48538;32.784;-96.802;2024-02-28T04:17:30;22.70;99.90
19809;DHT22;48538;32.784;-96.802;2024-02-28T04:19:57;22.60;99.90
19809;DHT22;48538;32.784;-96.802;2024-02-28T04:22:23;22.70;99.90
19809;DHT22;48538;32.784;-96.802;2024-02-28T04:24:49;22.70;99.90
19809;DHT22;48538;32.784;-96.802;2024-02-28T04:27:16;22.70;99.90
19809;DHT22;48538;32.784;-96.802;2024-02-28T04:29:42;22.60;99.90
19809;DHT22;48538;32.784;-96.802;2024-02-28T04:32:08;22.70;99.90
19809;DHT22;48538;32.784;-96.802;2024-02-28T04:34:36;22.70;99.90
19809;DHT22;48538;32.784;-96.802;2024-02-28T04:37:02;22.70;99.90
19809;DHT22;48538;32.784;-96.802;2024-02-28T04:39:28;22.60;99.90
19809;DHT22;48538;32.784;-96.802;2024-02-28T04:41:55;22.70;99.90
19809;DHT22;48538;32.784;-96.802;2024-02-28T04:44:21;22.70;99.90
19809;DHT22;48538;32.784;-96.802;2024-02-28T04:46:47;22.70;99.90
19809;DHT22;48538;32.784;-96.802;2024-02-28T04:49:13;22.70;99.90
19809;DHT22;48538;32.784;-96.802;2024-02-28T04:51:40;22.70;99.90
19809;DHT22;48538;32.784;-96.802;2024-02-28T04:54:06;22.70;99.90
19809;DHT22;48538;32.784;-96.802;2024-02-28T04:56:32;22.70;99.90
19809;DHT22;48538;32.784;-96.802;2024-02-28T04:58:58;22.70;99.90
19809;DHT22;48538;32.784;-96.802;2024-02-28T05:01:25;22.80;99.90
19809;DHT22;48538;32.784;-96.802;2024-02-28T05:03:51;22.70;99.90
19809;DHT22;48538;32.784;-96.802;2024-02-28T05:06:17;22.70;99.90
19809;DHT22;48538;32.784;-96.802;2024-02-28T05:08:44;22.70;99.90
19809;DHT22;48538;32.784;-96.802;2024-02-28T05:11:10;22.80;99.90
19809;DHT22;48538;32.784;-96.802;2024-02-28T05:13:36;22.80;99.90
19809;DHT22;48538;32.784;-96.802;2024-02-28T05:16:03;22.70;99.90
19809;DHT22;48538;32.784;-96.802;2024-02-28T05:18:29;22.80;99.90
19809;DHT22;48538;32.784;-96.802;2024-02-28T05:20:55;22.70;99.90
19809;DHT22;48538;32.784;-96.802;2024-02-28T05:23:22;22.70;99.90
19809;DHT22;48538;32.784;-96.802;2024-02-28T05:25:49;22.80;99.90
19809;DHT22;48538;32.784;-96.802;2024-02-28T05:28:15;22.70;99.90
19809;DHT22;48538;32.784;-96.802;2024-02-28T05:30:41;22.70;99.90
19809;DHT22;48538;32.784;-96.802;2024-02-28T05:33:07;22.70;99.90
19809;DHT22;48538;32.784;-96.802;2024-02-28T05:35:34;22.70;99.90
19809;DHT22;48538;32.784;-96.802;2024-02-28T05:38:00;22.70;99.90
19809;DHT22;48538;32.784;-96.802;2024-02-28T05:40:27;22.70;99.90
19809;DHT22;48538;32.784;-96.802;2024-02-28T05:42:53;22.70;99.90
19809;DHT22;48538;32.784;-96.802;2024-02-28T05:45:19;22.70;99.90
19809;DHT22;48538;32.784;-96.802;2024-02-28T05:47:45;22.70;99.90
19809;DHT22;48538;32.784;-96.802;2024-02-28T05:50:12;22.70;99.90
19809;DHT22;48538;32.784;-96.802;2024-02-28T05:52:42;22.70;99.90
19809;DHT22;48538;32.784;-96.802;2024-02-28T05:55:08;22.70;99.90
19809;DHT22;48538;32.784;-96.802;2024-02-28T05:57:35;22.70;99.90
19809;DHT22;48538;32.784;-96.802;2024-02-28T06:00:01;22.70;99.90
19809;DHT22;48538;32.784;-96.802;2024-02-28T06:02:36;22.70;99.90
19809;DHT22;48538;32.784;-96.802;2024-02-28T06:05:03;22.70;99.90
19809;DHT22;48538;32.784;-96.802;2024-02-28T06:07:30;22.70;99.90
19809;DHT22;48538;32.784;-96.802;2024-02-28T06:09:57;22.70;99.90
19809;DHT22;48538;32.784;-96.802;2024-02-28T06:12:23;22.80;99.90
19809;DHT22;48538;32.784;-96.802;2024-02-28T06:14:49;22.80;99.90
19809;DHT22;48538;32.784;-96.802;2024-02-28T06:17:16;22.80;99.90
19809;DHT22;48538;32.784;-96.802;2024-02-28T06:19:42;22.80;99.90
19809;DHT22;48538;32.784;-96.802;2024-02-28T06:22:08;22.80;99.90
19809;DHT22;48538;32.784;-96.802;2024-02-28T06:24:35;22.90;99.90
19809;DHT22;48538;32.784;-96.802;2024-02-28T06:27:01;22.90;99.90
19809;DHT22;48538;32.784;-96.802;2024-02-28T06:29:28;22.90;99.90
19809;DHT22;48538;32.784;-96.802;2024-02-28T06:31:54;22.90;99.90
19809;DHT22;48538;32.784;-96.802;2024-02-28T06:34:21;22.90;99.90
19809;DHT22;48538;32.784;-96.802;2024-02-28T06:36:48;22.90;99.90
19809;DHT22;48538;32.784;-96.802;2024-02-28T06:39:15;22.90;99.90
19809;DHT22;48538;32.784;-96.802;2024-02-28T06:41:41;22.80;99.90
19809;DHT22;48538;32.784;-96.802;2024-02-28T06:44:08;22.70;99.90
19809;DHT22;48538;32.784;-96.802;2024-02-28T06:46:34;22.80;99.90
19809;DHT22;48538;32.784;-96.802;2024-02-28T06:49:00;22.80;99.90
19809;DHT22;48538;32.784;-96.802;2024-02-28T06:51:26;22.80;99.90
19809;DHT22;48538;32.784;-96.802;2024-02-28T06:53:53;22.80;99.90
19809;DHT22;48538;32.784;-96.802;2024-02-28T06:56:19;22.70;99.90
19809;DHT22;48538;32.784;-96.802;2024-02-28T06:58:45;22.70;99.90
19809;DHT22;48538;32.784;-96.802;2024-02-28T07:01:11;22.60;99.90
19809;DHT22;48538;32.784;-96.802;2024-02-28T07:03:38;22.50;99.90
19809;DHT22;48538;32.784;-96.802;2024-02-28T07:06:04;21.00;99.90
19809;DHT22;48538;32.784;-96.802;2024-02-28T07:08:32;20.20;99.90
19809;DHT22;48538;32.784;-96.802;2024-02-28T07:10:58;19.40;99.90
19809;DHT22;48538;32.784;-96.802;2024-02-28T07:13:24;18.90;99.90
19809;DHT22;48538;32.784;-96.802;2024-02-28T07:15:52;18.60;99.90
19809;DHT22;48538;32.784;-96.802;2024-02-28T07:18:20;18.30;99.90
19809;DHT22;48538;32.784;-96.802;2024-02-28T07:20:46;17.90;99.90
19809;DHT22;48538;32.784;-96.802;2024-02-28T07:23:13;17.60;99.90
19809;DHT22;48538;32.784;-96.802;2024-02-28T07:25:39;17.60;99.90
19809;DHT22;48538;32.784;-96.802;2024-02-28T07:28:06;17.30;99.90
19809;DHT22;48538;32.784;-96.802;2024-02-28T07:30:32;17.10;99.90
19809;DHT22;48538;32.784;-96.802;2024-02-28T07:32:58;16.70;99.90
19809;DHT22;48538;32.784;-96.802;2024-02-28T07:35:24;16.10;99.90
19809;DHT22;48538;32.784;-96.802;2024-02-28T07:37:51;15.80;99.90
19809;DHT22;48538;32.784;-96.802;2024-02-28T07:40:17;15.60;99.90
19809;DHT22;48538;32.784;-96.802;2024-02-28T07:42:44;15.50;99.90
19809;DHT22;48538;32.784;-96.802;2024-02-28T07:45:10;15.50;99.90
19809;DHT22;48538;32.784;-96.802;2024-02-28T07:47:37;15.70;99.90
19809;DHT22;48538;32.784;-96.802;2024-02-28T07:50:04;15.30;99.90
19809;DHT22;48538;32.784;-96.802;2024-02-28T07:52:31;14.90;99.90
19809;DHT22;48538;32.784;-96.802;2024-02-28T07:55:01;15.10;99.90
19809;DHT22;48538;32.784;-96.802;2024-02-28T07:57:28;15.20;99.90
19809;DHT22;48538;32.784;-96.802;2024-02-28T07:59:54;14.40;99.90
19809;DHT22;48538;32.784;-96.802;2024-02-28T08:02:20;14.30;99.90
19809;DHT22;48538;32.784;-96.802;2024-02-28T08:04:47;14.20;99.90
19809;DHT22;48538;32.784;-96.802;2024-02-28T08:07:13;13.90;99.90
19809;DHT22;48538;32.784;-96.802;2024-02-28T08:09:40;14.00;99.90
19809;DHT22;48538;32.784;-96.802;2024-02-28T08:12:06;14.20;99.90
19809;DHT22;48538;32.784;-96.802;2024-02-28T08:14:33;14.00;99.90
19809;DHT22;48538;32.784;-96.802;2024-02-28T08:16:59;14.10;99.90
19809;DHT22;48538;32.784;-96.802;2024-02-28T08:19:25;14.00;99.90
19809;DHT22;48538;32.784;-96.802;2024-02-28T08:21:52;13.90;99.90
19809;DHT22;48538;32.784;-96.802;2024-02-28T08:24:18;14.00;99.90
19809;DHT22;48538;32.784;-96.802;2024-02-28T08:26:44;14.10;99.90
19809;DHT22;48538;32.784;-96.802;2024-02-28T08:29:11;14.00;99.90
19809;DHT22;48538;32.784;-96.802;2024-02-28T08:31:42;13.70;99.90
19809;DHT22;48538;32.784;-96.802;2024-02-28T08:34:09;12.80;99.90
19809;DHT22;48538;32.784;-96.802;2024-02-28T08:36:35;12.60;99.90
19809;DHT22;48538;32.784;-96.802;2024-02-28T08:39:02;12.70;99.90
19809;DHT22;48538;32.784;-96.802;2024-02-28T08:41:33;12.60;99.90
19809;DHT22;48538;32.784;-96.802;2024-02-28T08:43:59;12.60;99.90
19809;DHT22;48538;32.784;-96.802;2024-02-28T08:46:26;12.40;99.90
19809;DHT22;48538;32.784;-96.802;2024-02-28T08:48:52;12.30;99.90
19809;DHT22;48538;32.784;-96.802;2024-02-28T08:51:18;12.40;99.90
19809;DHT22;48538;32.784;-96.802;2024-02-28T08:53:44;12.00;99.90
19809;DHT22;48538;32.784;-96.802;2024-02-28T08:56:11;11.70;99.90
19809;DHT22;48538;32.784;-96.802;2024-02-28T08:58:37;11.80;99.90
19809;DHT22;48538;32.784;-96.802;2024-02-28T09:01:03;11.60;99.90
19809;DHT22;48538;32.784;-96.802;2024-02-28T09:03:30;11.10;99.90
19809;DHT22;48538;32.784;-96.802;2024-02-28T09:05:56;10.90;99.90
19809;DHT22;48538;32.784;-96.802;2024-02-28T09:08:22;11.10;99.90
19809;DHT22;48538;32.784;-96.802;2024-02-28T09:10:49;11.30;99.90
19809;DHT22;48538;32.784;-96.802;2024-02-28T09:13:15;11.40;99.90
19809;DHT22;48538;32.784;-96.802;2024-02-28T09:15:43;11.60;99.90
19809;DHT22;48538;32.784;-96.802;2024-02-28T09:18:10;11.10;99.90
19809;DHT22;48538;32.784;-96.802;2024-02-28T09:20:36;11.00;99.90
19809;DHT22;48538;32.784;-96.802;2024-02-28T09:23:02;10.90;99.90
19809;DHT22;48538;32.784;-96.802;2024-02-28T09:25:29;10.80;99.90
19809;DHT22;48538;32.784;-96.802;2024-02-28T09:27:56;11.00;99.90
19809;DHT22;48538;32.784;-96.802;2024-02-28T09:30:23;11.00;99.90
19809;DHT22;48538;32.784;-96.802;2024-02-28T09:32:49;10.80;99.90
19809;DHT22;48538;32.784;-96.802;2024-02-28T09:35:16;10.70;99.90
19809;DHT22;48538;32.784;-96.802;2024-02-28T09:37:42;10.40;99.90
19809;DHT22;48538;32.784;-96.802;2024-02-28T09:40:09;10.20;99.90
19809;DHT22;48538;32.784;-96.802;2024-02-28T09:42:36;9.90;99.90
19809;DHT22;48538;32.784;-96.802;2024-02-28T09:45:03;9.80;99.90
19809;DHT22;48538;32.784;-96.802;2024-02-28T09:47:30;10.00;99.90
19809;DHT22;48538;32.784;-96.802;2024-02-28T09:49:58;10.00;99.90
19809;DHT22;48538;32.784;-96.802;2024-02-28T09:52:28;10.10;99.90
19809;DHT22;48538;32.784;-96.802;2024-02-28T09:54:54;9.50;99.90
19809;DHT22;48538;32.784;-96.802;2024-02-28T09:57:22;9.70;99.90
19809;DHT22;48538;32.784;-96.802;2024-02-28T09:59:58;9.90;99.90
19809;DHT22;48538;32.784;-96.802;2024-02-28T10:02:25;10.20;99.90
19809;DHT22;48538;32.784;-96.802;2024-02-28T10:04:53;10.30;99.90
19809;DHT22;48538;32.784;-96.802;2024-02-28T10:07:19;10.30;99.90
19809;DHT22;48538;32.784;-96.802;2024-02-28T10:09:45;10.50;99.90
19809;DHT22;48538;32.784;-96.802;2024-02-28T10:12:12;10.20;99.90
19809;DHT22;48538;32.784;-96.802;2024-02-28T10:14:38;9.90;99.90
19809;DHT22;48538;32.784;-96.802;2024-02-28T10:17:05;10.00;99.90
19809;DHT22;48538;32.784;-96.802;2024-02-28T10:19:33;9.70;99.90
19809;DHT22;48538;32.784;-96.802;2024-02-28T10:22:00;9.90;99.90
19809;DHT22;48538;32.784;-96.802;2024-02-28T10:24:26;9.90;99.90
19809;DHT22;48538;32.784;-96.802;2024-02-28T10:26:52;9.90;99.90
19809;DHT22;48538;32.784;-96.802;2024-02-28T10:29:22;10.00;99.90
19809;DHT22;48538;32.784;-96.802;2024-02-28T10:31:50;10.20;99.90
19809;DHT22;48538;32.784;-96.802;2024-02-28T10:34:17;9.70;99.90
19809;DHT22;48538;32.784;-96.802;2024-02-28T10:36:44;9.70;99.90
19809;DHT22;48538;32.784;-96.802;2024-02-28T10:39:14;10.00;99.90
19809;DHT22;48538;32.784;-96.802;2024-02-28T10:41:41;10.20;99.90
19809;DHT22;48538;32.784;-96.802;2024-02-28T10:44:09;9.70;99.90
19809;DHT22;48538;32.784;-96.802;2024-02-28T10:46:38;9.50;99.90
19809;DHT22;48538;32.784;-96.802;2024-02-28T10:49:06;9.30;99.90
19809;DHT22;48538;32.784;-96.802;2024-02-28T10:51:35;9.40;99.90
19809;DHT22;48538;32.784;-96.802;2024-02-28T10:54:08;9.60;99.90
19809;DHT22;48538;32.784;-96.802;2024-02-28T10:56:38;9.70;99.90
19809;DHT22;48538;32.784;-96.802;2024-02-28T10:59:09;9.70;99.90
19809;DHT22;48538;32.784;-96.802;2024-02-28T11:01:40;9.50;99.90
19809;DHT22;48538;32.784;-96.802;2024-02-28T11:04:09;9.60;99.90
19809;DHT22;48538;32.784;-96.802;2024-02-28T11:06:46;9.80;99.90
19809;DHT22;48538;32.784;-96.802;2024-02-28T11:09:19;10.00;99.90
19809;DHT22;48538;32.784;-96.802;2024-02-28T11:11:49;9.40;99.90
19809;DHT22;48538;32.784;-96.802;2024-02-28T11:14:17;9.20;99.90
19809;DHT22;48538;32.784;-96.802;2024-02-28T11:16:43;9.10;99.90
19809;DHT22;48538;32.784;-96.802;2024-02-28T11:19:21;9.40;99.90
19809;DHT22;48538;32.784;-96.802;2024-02-28T11:21:54;9.50;99.90
19809;DHT22;48538;32.784;-96.802;2024-02-28T11:24:28;9.20;99.90
19809;DHT22;48538;32.784;-96.802;2024-02-28T11:26:54;9.60;99.90
19809;DHT22;48538;32.784;-96.802;2024-02-28T11:29:28;9.30;99.90
19809;DHT22;48538;32.784;-96.802;2024-02-28T11:31:55;9.40;99.90
19809;DHT22;48538;32.784;-96.802;2024-02-28T11:34:21;9.20;99.90
19809;DHT22;48538;32.784;-96.802;2024-02-28T11:36:49;8.80;99.90
19809;DHT22;48538;32.784;-96.802;2024-02-28T11:39:15;9.20;99.90
19809;DHT22;48538;32.784;-96.802;2024-02-28T11:41:42;8.90;99.90
19809;DHT22;48538;32.784;-96.802;2024-02-28T11:44:13;8.80;99.90
19809;DHT22;48538;32.784;-96.802;2024-02-28T11:46:46;8.80;99.90
19809;DHT22;48538;32.784;-96.802;2024-02-28T11:49:16;9.00;99.90
19809;DHT22;48538;32.784;-96.802;2024-02-28T11:51:43;8.80;99.90
19809;DHT22;48538;32.784;-96.802;2024-02-28T11:54:10;8.90;99.90
19809;DHT22;48538;32.784;-96.802;2024-02-28T11:56:37;8.90;99.90
19809;DHT22;48538;32.784;-96.802;2024-02-28T11:59:04;9.10;99.90
19809;DHT22;48538;32.784;-96.802;2024-02-28T12:01:40;9.40;99.90
19809;DHT22;48538;32.784;-96.802;2024-02-28T12:04:07;9.30;99.90
19809;DHT22;48538;32.784;-96.802;2024-02-28T12:06:40;9.20;99.90
19809;DHT22;48538;32.784;-96.802;2024-02-28T12:09:13;9.30;99.90
19809;DHT22;48538;32.784;-96.802;2024-02-28T12:11:44;9.30;99.90
19809;DHT22;48538;32.784;-96.802;2024-02-28T12:14:10;9.00;99.90
19809;DHT22;48538;32.784;-96.802;2024-02-28T12:16:39;9.10;99.90
19809;DHT22;48538;32.784;-96.802;2024-02-28T12:19:09;9.40;99.90
19809;DHT22;48538;32.784;-96.802;2024-02-28T12:21:40;9.60;99.90
19809;DHT22;48538;32.784;-96.802;2024-02-28T12:24:10;9.70;99.90
19809;DHT22;48538;32.784;-96.802;2024-02-28T12:26:38;8.90;99.90
19809;DHT22;48538;32.784;-96.802;2024-02-28T12:31:31;8.60;99.90
19809;DHT22;48538;32.784;-96.802;2024-02-28T12:33:57;8.90;99.90
19809;DHT22;48538;32.784;-96.802;2024-02-28T12:36:24;9.30;99.90
19809;DHT22;48538;32.784;-96.802;2024-02-28T12:38:50;9.30;99.90
19809;DHT22;48538;32.784;-96.802;2024-02-28T12:41:17;9.10;99.90
19809;DHT22;48538;32.784;-96.802;2024-02-28T12:43:43;9.50;99.90
19809;DHT22;48538;32.784;-96.802;2024-02-28T12:46:10;9.30;99.90
19809;DHT22;48538;32.784;-96.802;2024-02-28T12:48:40;8.80;99.90
19809;DHT22;48538;32.784;-96.802;2024-02-28T12:54:03;9.20;99.90
19809;DHT22;48538;32.784;-96.802;2024-02-28T12:56:30;9.20;99.90
19809;DHT22;48538;32.784;-96.802;2024-02-28T12:58:56;9.00;99.90
19809;DHT22;48538;32.784;-96.802;2024-02-28T13:01:22;8.90;99.90
19809;DHT22;48538;32.784;-96.802;2024-02-28T13:03:48;8.90;99.90
19809;DHT22;48538;32.784;-96.802;2024-02-28T13:06:15;8.90;99.90
19809;DHT22;48538;32.784;-96.802;2024-02-28T13:08:42;8.60;99.90
19809;DHT22;48538;32.784;-96.802;2024-02-28T13:11:08;8.80;99.90
19809;DHT22;48538;32.784;-96.802;2024-02-28T13:13:34;9.10;99.90
19809;DHT22;48538;32.784;-96.802;2024-02-28T13:16:00;9.40;99.90
19809;DHT22;48538;32.784;-96.802;2024-02-28T13:18:27;8.90;99.90
19809;DHT22;48538;32.784;-96.802;2024-02-28T13:20:53;8.70;99.90
19809;DHT22;48538;32.784;-96.802;2024-02-28T13:23:19;8.50;99.90
19809;DHT22;48538;32.784;-96.802;2024-02-28T13:25:46;8.60;99.90
19809;DHT22;48538;32.784;-96.802;2024-02-28T13:28:12;8.60;99.90
19809;DHT22;48538;32.784;-96.802;2024-02-28T13:30:38;8.70;99.90
19809;DHT22;48538;32.784;-96.802;2024-02-28T13:33:05;8.80;99.90
19809;DHT22;48538;32.784;-96.802;2024-02-28T13:37:58;7.70;99.90
19809;DHT22;48538;32.784;-96.802;2024-02-28T13:40:27;7.80;99.90
19809;DHT22;48538;32.784;-96.802;2024-02-28T13:42:53;8.10;99.90
19809;DHT22;48538;32.784;-96.802;2024-02-28T13:45:20;8.20;99.90
19809;DHT22;48538;32.784;-96.802;2024-02-28T13:47:46;7.90;99.90
19809;DHT22;48538;32.784;-96.802;2024-02-28T13:50:13;7.70;99.90
19809;DHT22;48538;32.784;-96.802;2024-02-28T13:52:39;7.50;99.90
19809;DHT22;48538;32.784;-96.802;2024-02-28T13:55:07;7.70;99.90
19809;DHT22;48538;32.784;-96.802;2024-02-28T13:57:35;7.50;99.90
19809;DHT22;48538;32.784;-96.802;2024-02-28T14:00:01;7.30;99.90
19809;DHT22;48538;32.784;-96.802;2024-02-28T14:02:32;7.00;99.90
19809;DHT22;48538;32.784;-96.802;2024-02-28T14:04:58;7.20;99.90
19809;DHT22;48538;32.784;-96.802;2024-02-28T14:07:26;7.50;99.90
19809;DHT22;48538;32.784;-96.802;2024-02-28T14:09:52;7.00;99.90
19809;DHT22;48538;32.784;-96.802;2024-02-28T14:12:19;7.00;99.90
19809;DHT22;48538;32.784;-96.802;2024-02-28T14:14:45;6.80;99.90
19809;DHT22;48538;32.784;-96.802;2024-02-28T14:17:11;6.60;99.90
19809;DHT22;48538;32.784;-96.802;2024-02-28T14:19:38;7.00;99.90
19809;DHT22;48538;32.784;-96.802;2024-02-28T14:22:04;7.40;99.90
19809;DHT22;48538;32.784;-96.802;2024-02-28T14:24:30;7.40;99.90
19809;DHT22;48538;32.784;-96.802;2024-02-28T14:26:57;7.00;99.90
19809;DHT22;48538;32.784;-96.802;2024-02-28T14:29:23;6.80;99.90
19809;DHT22;48538;32.784;-96.802;2024-02-28T14:31:49;6.10;99.90
19809;DHT22;48538;32.784;-96.802;2024-02-28T14:34:15;6.50;99.90
19809;DHT22;48538;32.784;-96.802;2024-02-28T14:36:42;6.30;99.90
19809;DHT22;48538;32.784;-96.802;2024-02-28T14:39:08;6.50;99.90
19809;DHT22;48538;32.784;-96.802;2024-02-28T14:41:44;6.40;99.90
19809;DHT22;48538;32.784;-96.802;2024-02-28T14:44:11;6.60;99.90
19809;DHT22;48538;32.784;-96.802;2024-02-28T14:46:37;6.80;99.90
19809;DHT22;48538;32.784;-96.802;2024-02-28T14:49:04;6.70;99.90
19809;DHT22;48538;32.784;-96.802;2024-02-28T14:51:30;6.50;99.90
19809;DHT22;48538;32.784;-96.802;2024-02-28T14:53:57;6.60;99.90
19809;DHT22;48538;32.784;-96.802;2024-02-28T14:56:23;6.10;99.90
19809;DHT22;48538;32.784;-96.802;2024-02-28T14:58:49;6.20;99.90
19809;DHT22;48538;32.784;-96.802;2024-02-28T15:01:16;6.10;99.90
19809;DHT22;48538;32.784;-96.802;2024-02-28T15:03:42;5.90;99.90
19809;DHT22;48538;32.784;-96.802;2024-02-28T15:06:09;5.90;99.90
19809;DHT22;48538;32.784;-96.802;2024-02-28T15:08:35;6.10;99.90
19809;DHT22;48538;32.784;-96.802;2024-02-28T15:11:01;6.70;99.90